Time;durP1;ratioP1;P1;durP2;ratioP2;P2;SDS_P1;SDS_P2;PMS_P1;PMS_P2;Temp;Humidity;BMP_temperature;BMP_pressure;BME280_temperature;BME280_humidity;BME280_pressure;Samples;Min_cycle;Max_cycle;Signal;HPM_P1;HPM_P2
2023/12/14 00:02:56;;;;;;;;;;;;;;;6.79;100.00;97575.56;68029;1275;1016279;-76
2023/12/14 00:05:59;;;;;;;;;;;;;;;6.70;100.00;97579.08;67969;1275;1016434;-75
2023/12/14 00:09:02;;;;;;;;;;;;;;;6.72;100.00;97577.88;67968;1275;1016261;-75
2023/12/14 00:12:25;;;;;;;;;;;;;;;6.77;100.00;97580.52;67974;1275;1016635;-74
2023/12/14 00:15:27;;;;;;;;;;;;;;;6.73;100.00;97586.84;67958;1275;1016246;-76
2023/12/14 00:18:30;;;;;;;;;;;;;;;6.73;100.00;97588.83;68012;1275;1016532;-75
2023/12/14 00:21:32;;;;;;;;;;;;;;;6.76;100.00;97590.16;68024;1275;1016439;-75
2023/12/14 00:24:35;;;;;;;;;;;;;;;6.70;100.00;97592.09;68001;1275;1016485;-76
2023/12/14 00:27:38;;;;;;;;;;;;;;;6.66;100.00;97593.92;67989;1275;1016134;-75
2023/12/14 00:30:40;;;;;;;;;;;;;;;6.64;100.00;97595.98;68039;1275;1016536;-75
2023/12/14 00:33:44;;;;;;;;;;;;;;;6.67;100.00;97595.06;68016;1275;1016466;-75
2023/12/14 00:36:47;;;;;;;;;;;;;;;6.73;100.00;97597.32;68022;1275;1016381;-74
2023/12/14 00:39:49;;;;;;;;;;;;;;;6.69;100.00;97599.48;67996;1275;1015873;-75
2023/12/14 00:42:52;;;;;;;;;;;;;;;6.66;100.00;97602.61;68026;1275;1018824;-76
2023/12/14 00:45:55;;;;;;;;;;;;;;;6.80;100.00;97612.50;68011;1275;1016475;-76
2023/12/14 00:48:57;;;;;;;;;;;;;;;6.89;100.00;97612.59;68066;1275;1016542;-75
2023/12/14 00:52:00;;;;;;;;;;;;;;;6.80;100.00;97613.69;68009;1275;1016527;-75
2023/12/14 00:55:02;;;;;;;;;;;;;;;6.75;100.00;97617.84;68018;1275;1020059;-76
2023/12/14 00:58:05;;;;;;;;;;;;;;;6.71;100.00;97618.47;68034;1275;1017202;-75
2023/12/14 01:01:07;;;;;;;;;;;;;;;6.70;100.00;97623.20;68035;1275;1016411;-75
2023/12/14 01:04:10;;;;;;;;;;;;;;;6.69;100.00;97625.02;68012;1275;1019442;-74
2023/12/14 01:07:13;;;;;;;;;;;;;;;6.70;100.00;97630.34;68028;1275;1018227;-76
2023/12/14 01:10:16;;;;;;;;;;;;;;;6.64;100.00;97635.42;68017;1275;1016249;-75
2023/12/14 01:13:18;;;;;;;;;;;;;;;6.51;100.00;97633.47;67990;1275;1016135;-75
2023/12/14 01:16:21;;;;;;;;;;;;;;;6.50;100.00;97638.22;68015;1275;1016414;-76
2023/12/14 01:19:25;;;;;;;;;;;;;;;6.60;100.00;97642.92;68038;1275;1016398;-75
2023/12/14 01:22:28;;;;;;;;;;;;;;;6.70;100.00;97645.10;67993;1275;1016897;-75
2023/12/14 01:25:31;;;;;;;;;;;;;;;6.71;100.00;97645.52;68060;1275;1016379;-75
2023/12/14 01:28:33;;;;;;;;;;;;;;;6.81;100.00;97648.02;68045;1275;1018089;-75
2023/12/14 01:31:36;;;;;;;;;;;;;;;6.86;100.00;97648.08;67985;1275;1016494;-76
2023/12/14 01:34:38;;;;;;;;;;;;;;;6.88;100.00;97650.86;68006;1275;1019813;-76
2023/12/14 01:37:41;;;;;;;;;;;;;;;6.97;100.00;97649.65;68032;1275;1016436;-76
2023/12/14 01:40:44;;;;;;;;;;;;;;;7.00;100.00;97651.34;68009;1275;1016054;-75
2023/12/14 01:43:46;;;;;;;;;;;;;;;6.98;100.00;97653.92;67978;1275;1015990;-75
2023/12/14 01:46:49;;;;;;;;;;;;;;;6.98;100.00;97653.60;67972;1275;1015898;-76
2023/12/14 01:49:51;;;;;;;;;;;;;;;6.99;100.00;97659.39;68007;1275;1016358;-75
2023/12/14 01:52:54;;;;;;;;;;;;;;;7.12;100.00;97656.46;67986;1275;1016251;-75
2023/12/14 01:55:57;;;;;;;;;;;;;;;7.16;100.00;97657.94;67974;1275;1015702;-75
2023/12/14 02:02:22;;;;;;;;;;;;;;;6.84;100.00;97658.98;68037;1275;1016782;-76
2023/12/14 02:05:25;;;;;;;;;;;;;;;6.79;100.00;97660.31;68017;1275;1016406;-75
2023/12/14 02:08:28;;;;;;;;;;;;;;;6.89;100.00;97657.28;68014;1275;1016275;-75
2023/12/14 02:11:33;;;;;;;;;;;;;;;6.94;100.00;97660.77;67999;1275;1016359;-75
2023/12/14 02:14:35;;;;;;;;;;;;;;;6.87;100.00;97661.05;68023;1275;1016572;-76
2023/12/14 02:17:38;;;;;;;;;;;;;;;6.81;100.00;97660.41;68056;1275;1015748;-75
2023/12/14 02:20:41;;;;;;;;;;;;;;;6.73;100.00;97657.95;68010;1275;1016603;-75
2023/12/14 02:23:44;;;;;;;;;;;;;;;6.74;100.00;97660.65;68054;1275;1016301;-75
2023/12/14 02:26:47;;;;;;;;;;;;;;;6.83;100.00;97660.58;68018;1275;1015920;-75
2023/12/14 02:29:50;;;;;;;;;;;;;;;6.80;100.00;97661.33;68051;1275;1017782;-75
2023/12/14 02:32:52;;;;;;;;;;;;;;;6.68;100.00;97661.40;67938;1275;1016547;-75
2023/12/14 02:35:55;;;;;;;;;;;;;;;6.60;100.00;97660.50;67980;1275;1015873;-75
2023/12/14 02:38:57;;;;;;;;;;;;;;;6.39;100.00;97663.17;67987;1275;1016208;-75
2023/12/14 02:42:00;;;;;;;;;;;;;;;6.57;100.00;97659.27;68014;1275;1016275;-75
2023/12/14 02:45:03;;;;;;;;;;;;;;;6.39;100.00;97656.25;67985;1275;1018030;-75
2023/12/14 02:48:05;;;;;;;;;;;;;;;6.28;100.00;97656.27;68034;1275;1016306;-75
2023/12/14 02:51:08;;;;;;;;;;;;;;;6.29;100.00;97656.91;68009;1275;1016733;-75
2023/12/14 02:54:11;;;;;;;;;;;;;;;6.32;100.00;97661.52;67974;1275;1015944;-75
2023/12/14 02:57:13;;;;;;;;;;;;;;;6.27;100.00;97659.45;68025;1275;1016466;-76
2023/12/14 03:00:16;;;;;;;;;;;;;;;6.20;100.00;97660.55;68068;1275;1016076;-75
2023/12/14 03:03:18;;;;;;;;;;;;;;;6.36;100.00;97664.56;67982;1275;1016346;-75
2023/12/14 03:06:21;;;;;;;;;;;;;;;6.35;100.00;97669.02;67968;1275;1016368;-75
2023/12/14 03:09:24;;;;;;;;;;;;;;;6.30;100.00;97674.71;67968;1275;1016481;-75
2023/12/14 03:12:26;;;;;;;;;;;;;;;6.28;100.00;97676.20;68026;1275;1016265;-75
2023/12/14 03:15:29;;;;;;;;;;;;;;;6.39;100.00;97680.77;67993;1275;1016705;-75
2023/12/14 03:18:32;;;;;;;;;;;;;;;6.47;100.00;97684.05;68020;1275;1016270;-75
2023/12/14 03:21:34;;;;;;;;;;;;;;;6.54;100.00;97693.52;68050;1275;1016529;-75
2023/12/14 03:24:37;;;;;;;;;;;;;;;6.56;100.00;97697.41;67997;1275;1016851;-75
2023/12/14 03:27:39;;;;;;;;;;;;;;;6.53;100.00;97701.05;67983;1275;1016282;-75
2023/12/14 03:30:42;;;;;;;;;;;;;;;6.35;100.00;97705.79;68019;1275;1016515;-75
2023/12/14 03:33:46;;;;;;;;;;;;;;;6.52;100.00;97710.00;68000;1275;1016397;-75
2023/12/14 03:36:49;;;;;;;;;;;;;;;6.66;100.00;97720.39;67964;1275;1016545;-75
2023/12/14 03:39:52;;;;;;;;;;;;;;;6.64;100.00;97722.64;68030;1275;1016548;-75
2023/12/14 03:42:54;;;;;;;;;;;;;;;6.59;100.00;97728.80;68047;1275;1016448;-75
2023/12/14 03:45:57;;;;;;;;;;;;;;;6.49;100.00;97736.02;67973;1275;1016464;-75
2023/12/14 03:49:00;;;;;;;;;;;;;;;6.40;100.00;97734.84;68060;1275;1019590;-76
2023/12/14 03:52:02;;;;;;;;;;;;;;;6.45;100.00;97740.08;68047;1275;1016418;-75
2023/12/14 03:55:05;;;;;;;;;;;;;;;6.47;100.00;97741.57;68035;1275;1016317;-75
2023/12/14 03:58:07;;;;;;;;;;;;;;;6.42;100.00;97743.41;67999;1275;1016199;-76
2023/12/14 04:01:10;;;;;;;;;;;;;;;6.38;100.00;97750.92;68036;1275;1016500;-75
2023/12/14 04:04:13;;;;;;;;;;;;;;;6.47;100.00;97753.68;68051;1275;1016252;-75
2023/12/14 04:07:15;;;;;;;;;;;;;;;6.55;100.00;97752.68;67996;1275;1016517;-75
2023/12/14 04:10:18;;;;;;;;;;;;;;;6.53;100.00;97758.90;67996;1275;1016300;-75
2023/12/14 04:13:20;;;;;;;;;;;;;;;6.58;100.00;97758.75;68049;1275;1016394;-74
2023/12/14 04:16:23;;;;;;;;;;;;;;;6.54;100.00;97757.95;68005;1275;1016845;-74
2023/12/14 04:19:26;;;;;;;;;;;;;;;6.32;100.00;97758.96;67986;1275;1016425;-74
2023/12/14 04:22:29;;;;;;;;;;;;;;;6.26;100.00;97761.38;68074;1275;1016033;-75
2023/12/14 04:25:31;;;;;;;;;;;;;;;6.37;100.00;97768.53;68050;1275;1016075;-75
2023/12/14 04:28:35;;;;;;;;;;;;;;;6.58;100.00;97775.80;68049;1275;1016192;-75
2023/12/14 04:31:37;;;;;;;;;;;;;;;6.52;100.00;97778.94;68029;1275;1016320;-75
2023/12/14 04:34:40;;;;;;;;;;;;;;;6.45;100.00;97782.44;68009;1275;1016229;-75
2023/12/14 04:37:42;;;;;;;;;;;;;;;6.49;100.00;97785.70;68002;1275;1016431;-75
2023/12/14 04:40:45;;;;;;;;;;;;;;;6.51;100.00;97790.48;68057;1275;1016475;-75
2023/12/14 04:43:47;;;;;;;;;;;;;;;6.48;100.00;97795.14;67994;1275;1016237;-75
2023/12/14 04:46:50;;;;;;;;;;;;;;;6.49;100.00;97797.15;68016;1275;1016345;-75
2023/12/14 04:49:53;;;;;;;;;;;;;;;6.50;100.00;97805.79;68047;1275;1017600;-75
2023/12/14 04:52:55;;;;;;;;;;;;;;;6.52;100.00;97811.91;68026;1275;1016288;-75
2023/12/14 04:55:58;;;;;;;;;;;;;;;6.54;100.00;97818.58;67953;1275;1016226;-75
2023/12/14 04:59:00;;;;;;;;;;;;;;;6.61;100.00;97821.78;68024;1275;1016602;-76
2023/12/14 05:02:03;;;;;;;;;;;;;;;6.58;100.00;97829.45;68015;1275;1016423;-74
2023/12/14 05:05:06;;;;;;;;;;;;;;;6.45;100.00;97837.90;67947;1275;1016595;-76
2023/12/14 05:08:08;;;;;;;;;;;;;;;6.45;100.00;97838.42;68018;1275;1016897;-75
2023/12/14 05:11:11;;;;;;;;;;;;;;;6.49;100.00;97841.94;68019;1275;1015918;-75
2023/12/14 05:14:13;;;;;;;;;;;;;;;6.54;100.00;97848.27;68038;1275;1016462;-75
2023/12/14 05:17:16;;;;;;;;;;;;;;;6.57;100.00;97850.88;67993;1275;1016228;-76
2023/12/14 05:20:20;;;;;;;;;;;;;;;6.52;100.00;97857.59;68031;1275;1016380;-75
2023/12/14 05:23:32;;;;;;;;;;;;;;;6.52;100.00;97863.33;67978;1275;1016299;-75
2023/12/14 05:26:34;;;;;;;;;;;;;;;6.52;100.00;97871.52;65404;1275;6391653;-76
2023/12/14 05:29:37;;;;;;;;;;;;;;;6.54;100.00;97874.31;67997;1275;1016580;-77
2023/12/14 05:32:39;;;;;;;;;;;;;;;6.66;100.00;97878.46;68012;1275;1016399;-76
2023/12/14 05:35:42;;;;;;;;;;;;;;;6.70;100.00;97880.17;68040;1275;1016462;-75
2023/12/14 05:38:44;;;;;;;;;;;;;;;6.55;100.00;97883.31;67940;1275;1016508;-75
2023/12/14 05:41:47;;;;;;;;;;;;;;;6.51;100.00;97888.23;67971;1275;1016484;-75
2023/12/14 05:44:50;;;;;;;;;;;;;;;6.51;100.00;97892.77;68030;1275;1016189;-75
2023/12/14 05:47:52;;;;;;;;;;;;;;;6.45;100.00;97896.27;67959;1275;1016397;-76
2023/12/14 05:50:55;;;;;;;;;;;;;;;6.50;100.00;97900.95;67988;1275;1016247;-75
2023/12/14 05:53:57;;;;;;;;;;;;;;;6.51;100.00;97904.38;68054;1275;1016335;-76
2023/12/14 05:57:00;;;;;;;;;;;;;;;6.54;100.00;97908.34;68068;1275;1016466;-75
2023/12/14 06:00:03;;;;;;;;;;;;;;;6.66;100.00;97913.44;68010;1275;1016252;-76
2023/12/14 06:03:06;;;;;;;;;;;;;;;6.66;100.00;97921.04;68008;1275;1017841;-76
2023/12/14 06:06:09;;;;;;;;;;;;;;;6.70;100.00;97927.27;67986;1275;1016156;-75
2023/12/14 06:09:13;;;;;;;;;;;;;;;6.68;100.00;97930.99;67975;1275;1016481;-75
2023/12/14 06:12:16;;;;;;;;;;;;;;;6.60;100.00;97926.29;68039;1275;1017897;-75
2023/12/14 06:15:19;;;;;;;;;;;;;;;6.52;100.00;97928.27;68002;1275;1016441;-75
2023/12/14 06:18:22;;;;;;;;;;;;;;;6.40;100.00;97927.94;68034;1275;1016274;-75
2023/12/14 06:21:26;;;;;;;;;;;;;;;6.32;100.00;97931.36;68056;1275;1016364;-76
2023/12/14 06:24:29;;;;;;;;;;;;;;;6.36;100.00;97933.05;68039;1275;1017484;-76
2023/12/14 06:27:31;;;;;;;;;;;;;;;6.42;100.00;97928.52;67985;1275;1016260;-76
2023/12/14 06:30:34;;;;;;;;;;;;;;;6.47;100.00;97931.20;68057;1275;1016506;-75
2023/12/14 06:33:36;;;;;;;;;;;;;;;6.45;100.00;97938.10;68047;1275;1016409;-75
2023/12/14 06:36:40;;;;;;;;;;;;;;;6.40;100.00;97946.71;68049;1275;1016552;-75
2023/12/14 06:39:43;;;;;;;;;;;;;;;6.42;100.00;97951.60;68011;1275;1016166;-75
2023/12/14 06:42:45;;;;;;;;;;;;;;;6.43;100.00;97961.13;68010;1275;1016296;-75
2023/12/14 06:45:48;;;;;;;;;;;;;;;6.32;100.00;97964.52;68013;1275;1016877;-75
2023/12/14 06:48:50;;;;;;;;;;;;;;;6.40;100.00;97968.05;68046;1275;1016510;-75
2023/12/14 06:52:14;;;;;;;;;;;;;;;6.41;100.00;97971.31;68024;1275;1016392;-75
2023/12/14 06:55:16;;;;;;;;;;;;;;;6.49;100.00;97973.09;68015;1275;1016015;-75
2023/12/14 06:58:19;;;;;;;;;;;;;;;6.56;100.00;97979.31;68034;1275;1016402;-75
2023/12/14 07:01:21;;;;;;;;;;;;;;;6.63;100.00;97982.23;68001;1275;1016382;-74
2023/12/14 07:04:24;;;;;;;;;;;;;;;6.81;100.00;97980.83;68039;1275;1016934;-75
2023/12/14 07:07:26;;;;;;;;;;;;;;;6.99;100.00;97984.45;68035;1275;1018631;-75
2023/12/14 07:10:29;;;;;;;;;;;;;;;7.10;100.00;97985.69;67997;1275;1016481;-75
2023/12/14 07:13:31;;;;;;;;;;;;;;;7.22;100.00;97986.71;67996;1275;1016455;-75
2023/12/14 07:16:34;;;;;;;;;;;;;;;7.34;100.00;97986.67;68032;1275;1016435;-75
2023/12/14 07:19:37;;;;;;;;;;;;;;;7.39;100.00;97985.67;68033;1275;1018180;-74
2023/12/14 07:22:39;;;;;;;;;;;;;;;7.36;100.00;97991.08;67956;1275;1016537;-75
2023/12/14 07:25:42;;;;;;;;;;;;;;;7.51;100.00;97992.42;68054;1275;1016536;-75
2023/12/14 07:28:44;;;;;;;;;;;;;;;7.49;100.00;97998.63;68011;1275;1016347;-73
2023/12/14 07:31:47;;;;;;;;;;;;;;;7.55;100.00;98004.02;67983;1275;1016398;-75
2023/12/14 07:34:50;;;;;;;;;;;;;;;7.65;100.00;98009.50;68014;1275;1016353;-74
2023/12/14 07:37:52;;;;;;;;;;;;;;;7.68;100.00;98009.14;68054;1275;1018294;-75
2023/12/14 07:40:55;;;;;;;;;;;;;;;7.76;100.00;98013.17;68055;1275;1016549;-75
2023/12/14 07:43:58;;;;;;;;;;;;;;;7.93;100.00;98019.41;67983;1275;1016454;-75
2023/12/14 07:47:00;;;;;;;;;;;;;;;8.04;100.00;98017.20;68041;1275;1016349;-75
2023/12/14 07:50:03;;;;;;;;;;;;;;;7.99;100.00;98023.71;68022;1275;1016361;-75
2023/12/14 07:53:06;;;;;;;;;;;;;;;7.97;100.00;98028.19;67975;1275;1016365;-74
2023/12/14 07:56:09;;;;;;;;;;;;;;;8.12;100.00;98037.91;68031;1275;1016474;-74
2023/12/14 07:59:12;;;;;;;;;;;;;;;8.12;100.00;98044.31;68054;1275;1016436;-75
2023/12/14 08:02:15;;;;;;;;;;;;;;;8.12;100.00;98043.31;68042;1275;1016311;-75
2023/12/14 08:05:20;;;;;;;;;;;;;;;8.06;100.00;98046.64;67983;1275;1016212;-75
2023/12/14 08:08:23;;;;;;;;;;;;;;;7.96;100.00;98047.78;68061;1275;1016248;-75
2023/12/14 08:11:26;;;;;;;;;;;;;;;7.92;100.00;98058.98;67995;1275;1016366;-75
2023/12/14 08:14:28;;;;;;;;;;;;;;;8.12;100.00;98059.64;68047;1275;1018079;-75
2023/12/14 08:17:31;;;;;;;;;;;;;;;8.29;100.00;98063.95;68046;1275;1016358;-75
2023/12/14 08:20:34;;;;;;;;;;;;;;;8.45;100.00;98065.58;67989;1275;1016480;-75
2023/12/14 08:23:36;;;;;;;;;;;;;;;8.37;100.00;98074.65;68034;1275;1015898;-75
2023/12/14 08:26:39;;;;;;;;;;;;;;;8.44;100.00;98081.55;67959;1275;1016119;-75
2023/12/14 08:29:42;;;;;;;;;;;;;;;8.52;100.00;98082.95;68009;1275;1016191;-75
2023/12/14 08:32:45;;;;;;;;;;;;;;;8.40;100.00;98086.62;68070;1275;1016218;-74
2023/12/14 08:35:48;;;;;;;;;;;;;;;8.22;100.00;98095.05;68060;1275;1016494;-74
2023/12/14 08:38:53;;;;;;;;;;;;;;;8.23;100.00;98101.65;68023;1275;1016449;-75
2023/12/14 08:41:55;;;;;;;;;;;;;;;8.26;100.00;98104.91;68032;1275;1016464;-75
2023/12/14 08:44:58;;;;;;;;;;;;;;;8.25;100.00;98112.16;67957;1275;1016309;-75
2023/12/14 08:48:01;;;;;;;;;;;;;;;8.21;100.00;98118.09;67980;1275;1017729;-74
2023/12/14 08:51:27;;;;;;;;;;;;;;;8.08;100.00;98121.06;68038;1275;1016432;-73
2023/12/14 08:54:30;;;;;;;;;;;;;;;7.94;100.00;98119.11;68023;1275;1016171;-75
2023/12/14 08:57:32;;;;;;;;;;;;;;;8.02;100.00;98122.23;68017;1275;1016485;-74
2023/12/14 09:00:35;;;;;;;;;;;;;;;8.19;100.00;98122.44;68007;1275;1016490;-75
2023/12/14 09:03:38;;;;;;;;;;;;;;;8.28;100.00;98129.54;67996;1275;1016413;-75
2023/12/14 09:06:42;;;;;;;;;;;;;;;8.29;100.00;98129.63;68029;1275;1016462;-75
2023/12/14 09:09:45;;;;;;;;;;;;;;;8.38;100.00;98139.23;68062;1275;1016797;-74
2023/12/14 09:12:47;;;;;;;;;;;;;;;8.55;100.00;98145.84;68060;1275;1016002;-75
2023/12/14 09:15:53;;;;;;;;;;;;;;;8.47;100.00;98145.23;67983;1275;1016140;-75
2023/12/14 09:18:56;;;;;;;;;;;;;;;8.53;100.00;98148.41;68028;1275;1017933;-75
2023/12/14 09:21:59;;;;;;;;;;;;;;;8.51;100.00;98151.48;68028;1275;1016887;-75
2023/12/14 09:25:03;;;;;;;;;;;;;;;8.60;100.00;98157.35;68080;1275;1018574;-74
2023/12/14 09:28:05;;;;;;;;;;;;;;;8.53;100.00;98156.41;68033;1275;1016011;-75
2023/12/14 09:31:08;;;;;;;;;;;;;;;8.54;100.00;98162.24;68032;1275;1016459;-75
2023/12/14 09:34:10;;;;;;;;;;;;;;;8.56;100.00;98169.33;67987;1275;1018876;-74
2023/12/14 09:37:14;;;;;;;;;;;;;;;8.51;100.00;98175.03;68011;1275;1017069;-75
2023/12/14 09:40:18;;;;;;;;;;;;;;;8.55;100.00;98178.09;68054;1275;1016421;-75
2023/12/14 09:43:23;;;;;;;;;;;;;;;8.56;100.00;98182.02;67979;1275;1016563;-75
2023/12/14 09:46:26;;;;;;;;;;;;;;;8.36;100.00;98186.90;67996;1275;1016407;-75
2023/12/14 09:49:29;;;;;;;;;;;;;;;8.37;100.00;98185.64;67957;1275;1016354;-75
2023/12/14 09:52:33;;;;;;;;;;;;;;;8.33;100.00;98181.30;68008;1275;1016239;-75
2023/12/14 09:55:35;;;;;;;;;;;;;;;8.38;100.00;98176.48;68030;1275;1016425;-75
2023/12/14 09:58:38;;;;;;;;;;;;;;;8.44;100.00;98178.39;68054;1275;1016467;-75
2023/12/14 10:01:40;;;;;;;;;;;;;;;8.53;100.00;98182.92;68025;1274;1016199;-75
2023/12/14 10:04:43;;;;;;;;;;;;;;;8.53;100.00;98183.05;68073;1275;1017258;-75
2023/12/14 10:07:46;;;;;;;;;;;;;;;8.48;100.00;98181.61;68067;1275;1016263;-75
2023/12/14 10:10:51;;;;;;;;;;;;;;;8.41;100.00;98186.94;68040;1275;1016433;-75
2023/12/14 10:13:53;;;;;;;;;;;;;;;8.41;100.00;98192.14;68049;1275;1018621;-74
2023/12/14 10:16:56;;;;;;;;;;;;;;;8.38;100.00;98192.71;68062;1275;1016072;-74
2023/12/14 10:20:00;;;;;;;;;;;;;;;8.28;100.00;98202.85;67999;1275;1016437;-75
2023/12/14 10:23:03;;;;;;;;;;;;;;;8.25;100.00;98205.13;68007;1275;1016251;-74
2023/12/14 10:26:06;;;;;;;;;;;;;;;8.26;100.00;98208.36;68066;1275;1018429;-75
2023/12/14 10:29:09;;;;;;;;;;;;;;;8.33;100.00;98215.80;68048;1275;1016091;-75
2023/12/14 10:32:14;;;;;;;;;;;;;;;8.31;100.00;98212.27;68059;1275;1018090;-75
2023/12/14 10:35:17;;;;;;;;;;;;;;;8.16;100.00;98217.56;68009;1275;1016243;-75
2023/12/14 10:38:19;;;;;;;;;;;;;;;8.07;100.00;98220.70;68015;1275;1017805;-74
2023/12/14 10:41:22;;;;;;;;;;;;;;;8.05;100.00;98222.20;68047;1275;1016477;-75
2023/12/14 10:44:25;;;;;;;;;;;;;;;8.20;100.00;98217.86;67898;1275;1016184;-75
2023/12/14 10:47:27;;;;;;;;;;;;;;;8.27;100.00;98221.24;67997;1275;1016148;-75
2023/12/14 10:50:30;;;;;;;;;;;;;;;8.01;100.00;98233.59;68056;1275;1016523;-75
2023/12/14 10:53:33;;;;;;;;;;;;;;;7.85;100.00;98241.67;67999;1275;1016413;-74
2023/12/14 10:56:35;;;;;;;;;;;;;;;7.75;100.00;98241.77;68029;1275;1016455;-75
2023/12/14 10:59:38;;;;;;;;;;;;;;;7.75;100.00;98249.03;68048;1275;1016426;-75
2023/12/14 11:02:42;;;;;;;;;;;;;;;7.86;100.00;98255.35;67982;1275;1015987;-75
2023/12/14 11:05:45;;;;;;;;;;;;;;;7.94;100.00;98258.55;68010;1275;1016420;-75
2023/12/14 11:08:47;;;;;;;;;;;;;;;7.99;100.00;98260.89;68048;1275;1016448;-74
2023/12/14 11:11:50;;;;;;;;;;;;;;;7.98;100.00;98263.90;68065;1275;1016117;-74
2023/12/14 11:14:53;;;;;;;;;;;;;;;8.01;100.00;98267.71;68053;1275;1016208;-75
2023/12/14 11:17:57;;;;;;;;;;;;;;;8.17;100.00;98271.48;67982;1275;1016894;-74
2023/12/14 11:21:00;;;;;;;;;;;;;;;8.24;100.00;98266.71;68026;1275;1016034;-74
2023/12/14 11:24:03;;;;;;;;;;;;;;;8.29;100.00;98267.96;68002;1275;1016433;-75
2023/12/14 11:27:06;;;;;;;;;;;;;;;8.40;100.00;98266.80;68018;1275;1016474;-75
2023/12/14 11:30:08;;;;;;;;;;;;;;;8.32;100.00;98268.63;68051;1275;1016269;-75
2023/12/14 11:33:11;;;;;;;;;;;;;;;8.19;100.00;98279.33;68008;1275;1017453;-74
2023/12/14 11:36:13;;;;;;;;;;;;;;;8.13;100.00;98284.09;68009;1275;1016171;-74
2023/12/14 11:39:16;;;;;;;;;;;;;;;8.02;100.00;98281.95;68039;1275;1016511;-75
2023/12/14 11:42:19;;;;;;;;;;;;;;;8.12;100.00;98279.44;68050;1275;1016348;-75
2023/12/14 11:45:21;;;;;;;;;;;;;;;8.24;100.00;98281.84;67996;1275;1016452;-75
2023/12/14 11:48:24;;;;;;;;;;;;;;;8.27;100.00;98282.01;68021;1275;1016321;-74
2023/12/14 11:51:26;;;;;;;;;;;;;;;8.26;100.00;98284.02;68010;1275;1016497;-74
2023/12/14 11:54:29;;;;;;;;;;;;;;;8.12;100.00;98284.68;68006;1275;1016120;-74
2023/12/14 11:57:32;;;;;;;;;;;;;;;8.07;100.00;98286.69;67983;1275;1015935;-75
2023/12/14 12:00:37;;;;;;;;;;;;;;;8.04;100.00;98288.07;68045;1275;1016340;-74
2023/12/14 12:03:40;;;;;;;;;;;;;;;8.17;100.00;98290.44;67995;1275;1019196;-75
2023/12/14 12:06:43;;;;;;;;;;;;;;;8.19;100.00;98289.48;68057;1275;1016475;-74
2023/12/14 12:09:45;;;;;;;;;;;;;;;8.33;100.00;98291.59;67992;1275;1016410;-74
2023/12/14 12:12:48;;;;;;;;;;;;;;;8.32;100.00;98293.05;68030;1275;1016202;-75
2023/12/14 12:15:50;;;;;;;;;;;;;;;8.26;100.00;98294.59;68007;1275;1018905;-74
2023/12/14 12:18:53;;;;;;;;;;;;;;;8.24;100.00;98295.44;68037;1275;1018198;-75
2023/12/14 12:21:55;;;;;;;;;;;;;;;8.26;100.00;98299.52;68011;1275;1016204;-75
2023/12/14 12:25:00;;;;;;;;;;;;;;;8.12;100.00;98297.89;68087;1275;1016245;-75
2023/12/14 12:28:03;;;;;;;;;;;;;;;8.12;100.00;98303.14;68006;1275;1015919;-75
2023/12/14 12:31:06;;;;;;;;;;;;;;;8.04;100.00;98310.71;68057;1275;1016271;-75
2023/12/14 12:34:08;;;;;;;;;;;;;;;8.05;100.00;98313.27;68077;1275;1016422;-75
2023/12/14 12:37:11;;;;;;;;;;;;;;;7.84;100.00;98321.27;68046;1275;1016410;-75
2023/12/14 12:40:15;;;;;;;;;;;;;;;7.62;100.00;98320.44;68006;1275;1016317;-74
2023/12/14 12:43:18;;;;;;;;;;;;;;;7.45;100.00;98326.96;68046;1275;1017394;-75
2023/12/14 12:46:21;;;;;;;;;;;;;;;7.20;100.00;98330.27;68064;1275;1016400;-74
2023/12/14 12:49:27;;;;;;;;;;;;;;;7.44;100.00;98328.60;68022;1275;1018492;-75
2023/12/14 12:52:29;;;;;;;;;;;;;;;7.55;100.00;98331.98;68056;1275;1016162;-75
2023/12/14 12:55:32;;;;;;;;;;;;;;;7.51;100.00;98332.54;68029;1275;1016602;-74
2023/12/14 12:58:35;;;;;;;;;;;;;;;7.59;100.00;98336.41;68037;1275;1015817;-75
2023/12/14 13:01:38;;;;;;;;;;;;;;;7.60;100.00;98342.47;67966;1275;1016170;-75
2023/12/14 13:04:40;;;;;;;;;;;;;;;7.59;100.00;98348.95;68012;1275;1016415;-75
2023/12/14 13:07:43;;;;;;;;;;;;;;;7.39;100.00;98344.34;68028;1275;1016637;-75
2023/12/14 13:10:51;;;;;;;;;;;;;;;7.27;100.00;98344.33;68027;1275;1017062;-75
2023/12/14 13:13:54;;;;;;;;;;;;;;;7.38;100.00;98344.91;67981;1275;1016740;-75
2023/12/14 13:16:58;;;;;;;;;;;;;;;7.42;100.00;98350.78;68029;1275;1016471;-75
2023/12/14 13:20:00;;;;;;;;;;;;;;;7.40;100.00;98355.27;68021;1275;1016465;-75
2023/12/14 13:23:03;;;;;;;;;;;;;;;7.49;100.00;98359.13;68028;1275;1016345;-76
2023/12/14 13:26:06;;;;;;;;;;;;;;;7.54;100.00;98362.98;68020;1275;1016720;-75
2023/12/14 13:29:08;;;;;;;;;;;;;;;7.62;100.00;98368.95;67993;1275;1016258;-75
2023/12/14 13:32:13;;;;;;;;;;;;;;;7.69;100.00;98380.82;67999;1275;1015946;-75
2023/12/14 13:35:15;;;;;;;;;;;;;;;7.64;100.00;98385.09;68030;1275;1015961;-75
2023/12/14 13:38:18;;;;;;;;;;;;;;;7.45;100.00;98390.50;68004;1275;1016023;-75
2023/12/14 13:41:21;;;;;;;;;;;;;;;7.32;100.00;98396.53;68075;1275;1016033;-75
2023/12/14 13:44:23;;;;;;;;;;;;;;;7.11;100.00;98402.57;68040;1275;1016119;-75
2023/12/14 13:47:27;;;;;;;;;;;;;;;6.95;100.00;98415.55;68044;1275;1015986;-74
2023/12/14 13:50:30;;;;;;;;;;;;;;;7.01;100.00;98414.57;68025;1275;1016441;-75
2023/12/14 13:53:32;;;;;;;;;;;;;;;7.05;100.00;98420.45;68071;1275;1016313;-75
2023/12/14 13:56:35;;;;;;;;;;;;;;;6.92;100.00;98430.98;68068;1275;1016461;-76
2023/12/14 13:59:38;;;;;;;;;;;;;;;7.08;100.00;98430.02;68060;1275;1016291;-74
2023/12/14 14:02:40;;;;;;;;;;;;;;;7.11;100.00;98434.56;68016;1275;1016416;-75
2023/12/14 14:05:44;;;;;;;;;;;;;;;7.12;100.00;98441.08;68034;1275;1016428;-74
2023/12/14 14:08:46;;;;;;;;;;;;;;;7.12;100.00;98443.72;68029;1275;1016479;-75
2023/12/14 14:11:50;;;;;;;;;;;;;;;7.07;100.00;98450.77;68045;1275;1018408;-75
2023/12/14 14:15:15;;;;;;;;;;;;;;;6.99;100.00;98456.05;68058;1275;1018526;-75
2023/12/14 14:18:18;;;;;;;;;;;;;;;6.95;100.00;98458.48;68022;1275;1015850;-75
2023/12/14 14:21:21;;;;;;;;;;;;;;;6.92;100.00;98463.69;68038;1275;1016454;-75
2023/12/14 14:24:23;;;;;;;;;;;;;;;6.87;100.00;98464.64;68027;1275;1016045;-75
2023/12/14 14:27:26;;;;;;;;;;;;;;;6.82;100.00;98467.19;68036;1275;1016351;-74
2023/12/14 14:30:28;;;;;;;;;;;;;;;6.98;100.00;98465.31;68053;1275;1020124;-75
2023/12/14 14:33:31;;;;;;;;;;;;;;;6.99;100.00;98474.82;67998;1275;1016870;-75
2023/12/14 14:36:34;;;;;;;;;;;;;;;7.07;100.00;98481.70;68045;1275;1015924;-74
2023/12/14 14:39:37;;;;;;;;;;;;;;;7.16;100.00;98491.33;68016;1275;1019271;-75
2023/12/14 14:42:41;;;;;;;;;;;;;;;7.27;100.00;98493.70;68024;1275;1016998;-75
2023/12/14 14:45:44;;;;;;;;;;;;;;;7.16;100.00;98499.47;67965;1275;1019103;-75
2023/12/14 14:48:47;;;;;;;;;;;;;;;7.02;100.00;98506.29;68006;1275;1015883;-75
2023/12/14 14:51:49;;;;;;;;;;;;;;;7.06;100.00;98507.13;67911;1275;1016497;-75
2023/12/14 14:54:54;;;;;;;;;;;;;;;6.98;100.00;98518.34;68032;1275;1016384;-75
2023/12/14 14:57:57;;;;;;;;;;;;;;;6.99;100.00;98523.33;68036;1275;1018410;-75
2023/12/14 15:00:59;;;;;;;;;;;;;;;7.01;100.00;98527.24;68039;1275;1016423;-76
2023/12/14 15:04:03;;;;;;;;;;;;;;;7.07;100.00;98535.96;67973;1275;1016470;-75
2023/12/14 15:07:05;;;;;;;;;;;;;;;7.12;100.00;98532.05;68028;1275;1016454;-75
2023/12/14 15:10:08;;;;;;;;;;;;;;;7.17;100.00;98530.23;68042;1275;1016474;-75
2023/12/14 15:13:11;;;;;;;;;;;;;;;7.06;100.00;98535.48;68041;1275;1017244;-75
2023/12/14 15:16:14;;;;;;;;;;;;;;;7.01;100.00;98545.10;67986;1275;1016223;-74
2023/12/14 15:19:16;;;;;;;;;;;;;;;6.95;100.00;98544.89;68034;1275;1016366;-74
2023/12/14 15:22:19;;;;;;;;;;;;;;;6.86;100.00;98552.62;68003;1275;1016554;-75
2023/12/14 15:25:22;;;;;;;;;;;;;;;6.77;100.00;98557.43;68038;1275;1016399;-75
2023/12/14 15:28:25;;;;;;;;;;;;;;;6.80;100.00;98561.30;68022;1275;1016307;-75
2023/12/14 15:31:28;;;;;;;;;;;;;;;6.74;100.00;98565.93;67985;1275;1016355;-75
2023/12/14 15:34:30;;;;;;;;;;;;;;;6.81;100.00;98571.34;68040;1275;1017946;-75